Time;durP1;ratioP1;P1;durP2;ratioP2;P2;SDS_P1;SDS_P2;PMS_P1;PMS_P2;Temp;Humidity;BMP_temperature;BMP_pressure;BME280_temperature;BME280_humidity;BME280_pressure;Samples;Min_cycle;Max_cycle;Signal;HPM_P1;HPM_P2
2023/12/20 00:02:02;;;;;;;2.67;2.47;;;;;;;;;;10027998;28;20108;-74
2023/12/20 00:06:54;;;;;;;3.42;2.63;;;;;;;;;;10028958;28;20473;-74
2023/12/20 00:11:46;;;;;;;4.90;3.47;;;;;;;;;;10027574;28;20104;-74
2023/12/20 00:16:38;;;;;;;3.35;2.80;;;;;;;;;;10027751;28;20048;-74
2023/12/20 00:21:30;;;;;;;3.97;2.85;;;;;;;;;;10026828;28;20041;-74
2023/12/20 00:26:21;;;;;;;3.08;2.72;;;;;;;;;;10027404;28;20104;-74
2023/12/20 00:31:14;;;;;;;3.75;2.70;;;;;;;;;;10026226;28;20042;-74
2023/12/20 00:36:06;;;;;;;3.65;3.22;;;;;;;;;;10026894;28;20042;-74
2023/12/20 00:40:58;;;;;;;4.25;3.13;;;;;;;;;;10027279;28;20049;-74
2023/12/20 00:45:50;;;;;;;6.88;4.28;;;;;;;;;;10017962;28;20046;-74
2023/12/20 00:50:42;;;;;;;6.25;3.58;;;;;;;;;;10014052;28;20046;-74
2023/12/20 00:55:33;;;;;;;4.75;3.42;;;;;;;;;;9988280;28;20069;-74
2023/12/20 01:00:25;;;;;;;3.55;3.05;;;;;;;;;;10003686;28;20077;-74
2023/12/20 01:05:23;;;;;;;3.72;3.25;;;;;;;;;;9989808;28;20042;-74
2023/12/20 01:10:15;;;;;;;3.85;3.17;;;;;;;;;;9988885;28;20084;-74
2023/12/20 01:15:07;;;;;;;6.80;3.95;;;;;;;;;;9988790;28;20145;-74
2023/12/20 01:19:59;;;;;;;3.42;2.95;;;;;;;;;;9989740;28;20437;-74
2023/12/20 01:24:51;;;;;;;5.35;4.22;;;;;;;;;;10008930;28;20086;-74
2023/12/20 01:29:43;;;;;;;5.38;3.78;;;;;;;;;;9990135;28;20046;-74
2023/12/20 01:34:35;;;;;;;6.43;4.00;;;;;;;;;;9988978;28;20461;-74
2023/12/20 01:39:28;;;;;;;3.90;3.05;;;;;;;;;;9988631;28;20038;-74
2023/12/20 01:44:20;;;;;;;4.88;3.38;;;;;;;;;;9988404;28;20382;-74
2023/12/20 01:49:13;;;;;;;3.20;2.90;;;;;;;;;;9996326;28;20128;-74
2023/12/20 01:54:05;;;;;;;3.53;3.05;;;;;;;;;;10000169;28;20042;-74
2023/12/20 01:58:58;;;;;;;3.65;2.78;;;;;;;;;;10008369;28;20057;-74
2023/12/20 02:03:50;;;;;;;6.43;3.33;;;;;;;;;;9997104;28;20120;-74
2023/12/20 02:08:42;;;;;;;4.78;2.50;;;;;;;;;;9994911;28;20572;-74
2023/12/20 02:13:33;;;;;;;3.83;3.22;;;;;;;;;;9997861;28;20077;-74
2023/12/20 02:18:26;;;;;;;4.25;3.85;;;;;;;;;;9995716;28;20169;-74
2023/12/20 02:23:18;;;;;;;3.67;2.80;;;;;;;;;;10009562;28;20084;-74
2023/12/20 02:28:09;;;;;;;4.13;3.33;;;;;;;;;;10008477;28;20133;-74
2023/12/20 02:33:03;;;;;;;3.17;2.80;;;;;;;;;;9997552;28;20043;-74
2023/12/20 02:37:55;;;;;;;4.18;3.70;;;;;;;;;;9977373;28;20100;-74
2023/12/20 02:42:47;;;;;;;5.93;4.78;;;;;;;;;;10009384;28;20504;-74
2023/12/20 02:47:39;;;;;;;5.45;4.85;;;;;;;;;;9995152;28;20120;-74
2023/12/20 02:52:31;;;;;;;4.75;4.35;;;;;;;;;;10002868;28;20130;-74
2023/12/20 02:57:23;;;;;;;5.85;4.43;;;;;;;;;;10002476;28;20046;-74
2023/12/20 03:02:15;;;;;;;6.80;4.10;;;;;;;;;;9993517;28;20069;-73
2023/12/20 03:07:07;;;;;;;5.65;4.28;;;;;;;;;;9993358;28;20039;-74
2023/12/20 03:11:58;;;;;;;8.80;7.30;;;;;;;;;;9997737;28;20105;-74
2023/12/20 03:16:51;;;;;;;16.42;6.38;;;;;;;;;;9992980;28;20358;-74
2023/12/20 03:21:42;;;;;;;10.65;7.07;;;;;;;;;;9997242;28;20054;-74
2023/12/20 03:26:34;;;;;;;9.63;7.10;;;;;;;;;;9993926;28;20046;-74
2023/12/20 03:31:26;;;;;;;12.25;8.20;;;;;;;;;;9992106;28;20053;-74
2023/12/20 03:36:18;;;;;;;10.60;8.90;;;;;;;;;;9992238;28;20465;-73
2023/12/20 03:41:11;;;;;;;8.75;6.97;;;;;;;;;;9992019;28;20038;-74
2023/12/20 03:46:03;;;;;;;9.77;6.80;;;;;;;;;;9994094;28;20092;-74
2023/12/20 03:50:57;;;;;;;10.68;8.27;;;;;;;;;;9993385;28;20038;-74
2023/12/20 03:55:48;;;;;;;9.75;7.50;;;;;;;;;;9992271;28;20461;-74
2023/12/20 04:00:40;;;;;;;8.70;7.28;;;;;;;;;;9993103;28;20046;-74
2023/12/20 04:05:32;;;;;;;9.35;7.88;;;;;;;;;;9991100;28;20428;-74
2023/12/20 04:10:24;;;;;;;8.80;6.85;;;;;;;;;;9991235;28;20046;-74
2023/12/20 04:15:16;;;;;;;7.90;6.05;;;;;;;;;;9989177;28;20130;-74
2023/12/20 04:20:08;;;;;;;6.70;6.00;;;;;;;;;;9990743;28;20038;-74
2023/12/20 04:25:00;;;;;;;8.23;5.50;;;;;;;;;;9990419;28;20064;-74
2023/12/20 04:29:52;;;;;;;7.30;5.15;;;;;;;;;;9993123;28;20130;-75
2023/12/20 04:34:44;;;;;;;9.63;4.30;;;;;;;;;;9990529;28;20042;-74
2023/12/20 04:39:36;;;;;;;6.32;4.68;;;;;;;;;;9990943;28;20045;-74
2023/12/20 04:44:28;;;;;;;7.32;5.35;;;;;;;;;;9989504;28;20112;-74
2023/12/20 04:49:20;;;;;;;4.30;3.33;;;;;;;;;;9992410;28;20045;-74
2023/12/20 04:54:13;;;;;;;4.28;3.42;;;;;;;;;;9989920;28;20047;-74
2023/12/20 04:59:05;;;;;;;6.28;4.93;;;;;;;;;;9991350;28;20062;-74
2023/12/20 05:03:57;;;;;;;6.75;5.15;;;;;;;;;;9989335;28;20101;-74
2023/12/20 05:08:49;;;;;;;4.32;3.85;;;;;;;;;;9989150;28;20047;-74
2023/12/20 05:13:41;;;;;;;6.78;4.55;;;;;;;;;;9988697;28;20699;-74
2023/12/20 05:18:41;;;;;;;4.93;4.22;;;;;;;;;;10000026;28;20045;-74
2023/12/20 05:23:32;;;;;;;3.88;3.33;;;;;;;;;;10022398;28;20489;-73
2023/12/20 05:28:25;;;;;;;4.78;3.75;;;;;;;;;;9990309;28;20105;-73
2023/12/20 05:33:17;;;;;;;5.25;4.30;;;;;;;;;;10002528;28;20049;-74
2023/12/20 05:38:09;;;;;;;4.35;3.85;;;;;;;;;;10019823;28;20049;-74
2023/12/20 05:43:02;;;;;;;4.43;3.70;;;;;;;;;;10025550;28;20460;-73
2023/12/20 05:47:54;;;;;;;4.63;3.33;;;;;;;;;;10025150;28;20045;-74
2023/12/20 05:52:45;;;;;;;30.35;22.60;;;;;;;;;;10024536;28;20042;-74
2023/12/20 05:57:37;;;;;;;7.40;6.07;;;;;;;;;;10025192;28;20488;-74
2023/12/20 06:02:29;;;;;;;7.38;5.18;;;;;;;;;;10025302;28;20077;-74
2023/12/20 06:07:21;;;;;;;13.02;8.95;;;;;;;;;;10005813;28;20085;-74
2023/12/20 06:12:13;;;;;;;8.85;6.55;;;;;;;;;;9997040;28;20416;-74
2023/12/20 06:17:05;;;;;;;19.50;15.30;;;;;;;;;;10013934;28;20038;-74
2023/12/20 06:21:57;;;;;;;10.90;8.88;;;;;;;;;;10022171;28;20464;-73
2023/12/20 06:26:49;;;;;;;9.18;8.27;;;;;;;;;;10015615;28;20050;-73
2023/12/20 06:31:43;;;;;;;12.40;10.25;;;;;;;;;;9993349;28;20141;-73
2023/12/20 06:36:35;;;;;;;16.15;11.90;;;;;;;;;;10007115;28;20050;-73
2023/12/20 06:41:28;;;;;;;7.63;5.80;;;;;;;;;;10010953;28;20134;-72
2023/12/20 06:46:20;;;;;;;11.07;7.68;;;;;;;;;;9993536;28;20049;-73
2023/12/20 06:51:14;;;;;;;7.68;6.82;;;;;;;;;;9992058;28;20073;-73
2023/12/20 06:56:07;;;;;;;84.28;51.97;;;;;;;;;;9996377;28;20046;-73
2023/12/20 07:00:59;;;;;;;27.95;13.98;;;;;;;;;;9996118;28;20133;-73
2023/12/20 07:05:51;;;;;;;20.73;14.10;;;;;;;;;;9994309;28;20058;-73
2023/12/20 07:10:43;;;;;;;78.25;46.45;;;;;;;;;;9995446;28;20058;-73
2023/12/20 07:15:36;;;;;;;14.05;9.73;;;;;;;;;;9994083;28;20038;-73
2023/12/20 07:20:28;;;;;;;7.13;5.28;;;;;;;;;;9991104;28;20108;-73
2023/12/20 07:25:20;;;;;;;13.40;9.18;;;;;;;;;;9998386;28;20061;-73
2023/12/20 07:30:12;;;;;;;7.13;5.57;;;;;;;;;;9990402;28;20046;-73
2023/12/20 07:35:05;;;;;;;7.95;5.97;;;;;;;;;;9989173;28;20058;-74
2023/12/20 07:39:57;;;;;;;39.72;29.42;;;;;;;;;;9988920;28;20501;-72
2023/12/20 07:44:49;;;;;;;10.35;8.75;;;;;;;;;;9988267;28;20358;-73
2023/12/20 07:49:41;;;;;;;10.73;8.13;;;;;;;;;;9991932;28;20474;-73
2023/12/20 07:54:33;;;;;;;11.77;7.32;;;;;;;;;;9997430;28;20101;-72
2023/12/20 07:59:25;;;;;;;10.68;7.72;;;;;;;;;;9990008;28;20054;-72
2023/12/20 08:04:23;;;;;;;12.10;9.77;;;;;;;;;;9984616;28;20050;-72
2023/12/20 08:09:15;;;;;;;13.02;8.32;;;;;;;;;;9985394;28;20465;-73
2023/12/20 08:14:07;;;;;;;16.27;11.85;;;;;;;;;;9986804;28;20137;-74
2023/12/20 08:18:59;;;;;;;14.55;12.95;;;;;;;;;;9987638;28;20097;-74
2023/12/20 08:23:52;;;;;;;14.13;12.38;;;;;;;;;;9982810;28;20042;-75
2023/12/20 08:28:44;;;;;;;12.95;11.40;;;;;;;;;;10015350;28;20448;-74
2023/12/20 08:33:35;;;;;;;13.90;10.55;;;;;;;;;;10023419;28;20076;-74
2023/12/20 08:38:27;;;;;;;15.88;12.75;;;;;;;;;;10023303;28;20042;-74
2023/12/20 08:43:19;;;;;;;16.17;12.38;;;;;;;;;;10022330;28;20123;-74
2023/12/20 08:48:11;;;;;;;16.77;12.15;;;;;;;;;;10023066;28;20180;-74
2023/12/20 08:53:03;;;;;;;18.30;12.05;;;;;;;;;;9993451;28;20112;-75
2023/12/20 08:57:55;;;;;;;21.98;14.48;;;;;;;;;;9988419;28;20049;-75
2023/12/20 09:02:47;;;;;;;19.15;16.33;;;;;;;;;;9989183;28;20544;-75
2023/12/20 09:07:39;;;;;;;22.70;15.15;;;;;;;;;;10001928;28;20129;-75
2023/12/20 09:12:31;;;;;;;26.33;16.23;;;;;;;;;;9989410;28;20038;-74
2023/12/20 09:17:23;;;;;;;19.65;13.90;;;;;;;;;;9989311;28;20129;-74
2023/12/20 09:22:15;;;;;;;14.73;11.32;;;;;;;;;;9996504;28;20045;-75
2023/12/20 09:27:07;;;;;;;26.02;15.68;;;;;;;;;;9987657;28;20134;-75
2023/12/20 09:31:59;;;;;;;20.13;13.75;;;;;;;;;;9992367;28;20544;-74
2023/12/20 09:36:52;;;;;;;22.58;12.75;;;;;;;;;;9987913;28;20068;-74
2023/12/20 09:41:46;;;;;;;17.88;13.45;;;;;;;;;;10006422;28;20237;-75
2023/12/20 09:46:39;;;;;;;26.60;21.35;;;;;;;;;;9987325;28;20061;-74
2023/12/20 09:51:31;;;;;;;34.85;22.98;;;;;;;;;;10001956;28;20129;-74
2023/12/20 09:56:23;;;;;;;39.67;28.63;;;;;;;;;;9983717;28;20085;-74
2023/12/20 10:01:16;;;;;;;28.40;18.65;;;;;;;;;;10002223;28;20053;-74
2023/12/20 10:06:08;;;;;;;24.10;17.50;;;;;;;;;;9986122;28;20053;-75
2023/12/20 10:11:02;;;;;;;17.23;14.60;;;;;;;;;;10005361;28;20496;-75
2023/12/20 10:15:55;;;;;;;40.40;16.40;;;;;;;;;;9994596;28;20137;-74
2023/12/20 10:20:47;;;;;;;20.42;15.23;;;;;;;;;;9993933;28;20042;-74
2023/12/20 10:25:41;;;;;;;24.25;18.15;;;;;;;;;;9999351;28;20050;-75
2023/12/20 10:30:33;;;;;;;23.10;19.10;;;;;;;;;;9994212;28;20035;-74
2023/12/20 10:35:25;;;;;;;23.40;19.48;;;;;;;;;;9993472;28;20363;-74
2023/12/20 10:40:17;;;;;;;23.80;19.30;;;;;;;;;;9991978;28;20046;-75
2023/12/20 10:45:09;;;;;;;27.98;20.00;;;;;;;;;;10019027;28;20103;-74
2023/12/20 10:50:02;;;;;;;32.65;20.92;;;;;;;;;;9990986;28;20034;-75
2023/12/20 10:54:54;;;;;;;28.92;20.85;;;;;;;;;;10008846;28;20062;-75
2023/12/20 10:59:49;;;;;;;24.25;14.45;;;;;;;;;;10006367;28;20068;-75
2023/12/20 11:04:45;;;;;;;20.40;13.15;;;;;;;;;;10007457;28;20099;-76
2023/12/20 11:09:41;;;;;;;37.53;17.33;;;;;;;;;;10003015;28;20054;-75
2023/12/20 11:14:47;;;;;;;20.25;11.80;;;;;;;;;;10007373;28;20076;-75
2023/12/20 11:19:58;;;;;;;14.40;9.93;;;;;;;;;;10000918;28;20042;-75
2023/12/20 11:24:51;;;;;;;17.42;13.30;;;;;;;;;;9994666;28;20054;-75
2023/12/20 11:29:51;;;;;;;13.38;9.57;;;;;;;;;;9991433;28;20391;-73
2023/12/20 11:34:43;;;;;;;24.40;10.73;;;;;;;;;;10000238;28;20042;-75
2023/12/20 11:39:35;;;;;;;18.88;12.65;;;;;;;;;;9989988;28;20429;-75
2023/12/20 11:44:30;;;;;;;19.73;14.55;;;;;;;;;;9988184;28;20058;-76
2023/12/20 11:49:25;;;;;;;25.33;15.45;;;;;;;;;;9987676;28;20038;-75
2023/12/20 11:54:17;;;;;;;17.27;14.57;;;;;;;;;;9992030;28;20544;-75
2023/12/20 11:59:11;;;;;;;15.55;12.40;;;;;;;;;;9992462;28;20533;-75
2023/12/20 12:04:14;;;;;;;20.75;17.48;;;;;;;;;;9989905;28;20050;-75
2023/12/20 12:09:06;;;;;;;14.95;12.80;;;;;;;;;;9993401;28;20053;-72
2023/12/20 12:13:58;;;;;;;16.50;13.68;;;;;;;;;;9998017;28;20041;-74
2023/12/20 12:18:57;;;;;;;23.33;15.82;;;;;;;;;;9993637;28;20057;-75
2023/12/20 12:23:49;;;;;;;18.42;15.02;;;;;;;;;;9995764;28;20432;-75
2023/12/20 12:28:44;;;;;;;18.52;14.15;;;;;;;;;;9988913;28;20076;-73
2023/12/20 12:33:36;;;;;;;18.15;15.23;;;;;;;;;;10002023;28;20046;-74
2023/12/20 12:38:28;;;;;;;23.63;19.77;;;;;;;;;;10003823;28;20485;-74
2023/12/20 12:43:22;;;;;;;29.70;24.98;;;;;;;;;;9994261;28;20498;-75
2023/12/20 12:48:14;;;;;;;24.45;18.60;;;;;;;;;;10001654;28;20042;-73
2023/12/20 12:53:06;;;;;;;20.92;16.20;;;;;;;;;;9995684;28;20054;-72
2023/12/20 12:57:58;;;;;;;21.90;16.80;;;;;;;;;;9997507;28;20428;-72
2023/12/20 13:02:50;;;;;;;22.38;15.70;;;;;;;;;;10003240;28;20042;-72
2023/12/20 13:07:45;;;;;;;16.83;13.73;;;;;;;;;;9989242;28;20389;-74
2023/12/20 13:12:37;;;;;;;17.95;14.75;;;;;;;;;;9987141;28;20081;-71
2023/12/20 13:17:29;;;;;;;24.25;15.80;;;;;;;;;;9988536;28;20046;-75
2023/12/20 13:22:23;;;;;;;21.15;16.65;;;;;;;;;;9989176;28;20042;-72
2023/12/20 13:27:15;;;;;;;21.00;15.57;;;;;;;;;;9987951;28;20053;-72
2023/12/20 13:32:07;;;;;;;21.02;16.42;;;;;;;;;;10002904;28;20429;-72
2023/12/20 13:36:59;;;;;;;28.60;16.70;;;;;;;;;;9989399;28;20129;-73
2023/12/20 13:41:52;;;;;;;19.45;15.75;;;;;;;;;;9988169;28;20137;-72
2023/12/20 13:46:45;;;;;;;23.52;18.23;;;;;;;;;;9993810;28;20101;-74
2023/12/20 13:51:37;;;;;;;26.42;18.67;;;;;;;;;;10004420;28;20054;-75
2023/12/20 13:56:29;;;;;;;23.73;17.13;;;;;;;;;;9995371;28;20045;-74
2023/12/20 14:01:21;;;;;;;21.27;18.00;;;;;;;;;;9995496;28;20038;-74
2023/12/20 14:06:14;;;;;;;31.42;25.23;;;;;;;;;;9995015;28;20446;-74
2023/12/20 14:11:06;;;;;;;32.22;21.17;;;;;;;;;;9995132;28;20042;-72
2023/12/20 14:16:00;;;;;;;29.08;20.23;;;;;;;;;;9995594;28;20113;-74
2023/12/20 14:20:53;;;;;;;29.77;22.17;;;;;;;;;;9994723;28;20097;-73
2023/12/20 14:25:45;;;;;;;27.88;22.20;;;;;;;;;;10002888;28;20054;-74
2023/12/20 14:30:43;;;;;;;24.67;18.88;;;;;;;;;;9997193;28;20078;-74
2023/12/20 14:35:35;;;;;;;24.13;17.90;;;;;;;;;;9993875;28;20042;-74
2023/12/20 14:40:27;;;;;;;24.48;19.13;;;;;;;;;;10001638;28;20070;-75
2023/12/20 14:45:19;;;;;;;21.90;19.48;;;;;;;;;;9999339;28;20129;-74
2023/12/20 14:50:17;;;;;;;27.10;23.10;;;;;;;;;;9995948;28;20134;-73
2023/12/20 14:55:09;;;;;;;52.42;21.40;;;;;;;;;;9999595;28;20042;-73
2023/12/20 15:00:02;;;;;;;29.85;21.98;;;;;;;;;;9993498;28;20042;-74
2023/12/20 15:04:54;;;;;;;31.63;23.88;;;;;;;;;;10006437;28;20137;-73
2023/12/20 15:09:47;;;;;;;26.27;20.00;;;;;;;;;;9986895;28;20100;-73
2023/12/20 15:14:39;;;;;;;34.67;23.42;;;;;;;;;;9988911;28;20046;-73
2023/12/20 15:19:31;;;;;;;35.17;28.33;;;;;;;;;;9990064;28;20096;-72
2023/12/20 15:24:28;;;;;;;32.97;26.75;;;;;;;;;;9992349;28;20489;-73
2023/12/20 15:29:20;;;;;;;38.53;30.02;;;;;;;;;;9990760;28;20042;-73
2023/12/20 15:34:12;;;;;;;30.65;25.20;;;;;;;;;;10001611;28;20388;-73
2023/12/20 15:39:05;;;;;;;30.80;23.48;;;;;;;;;;10003262;28;20053;-73
2023/12/20 15:43:57;;;;;;;30.50;23.75;;;;;;;;;;10027435;28;20058;-73
2023/12/20 15:48:51;;;;;;;35.38;28.67;;;;;;;;;;10014992;28;20042;-73
2023/12/20 15:53:43;;;;;;;24.35;20.95;;;;;;;;;;10024381;28;20646;-73
2023/12/20 15:58:35;;;;;;;27.63;23.23;;;;;;;;;;10024813;28;20429;-73
2023/12/20 16:03:27;;;;;;;23.10;20.25;;;;;;;;;;10026485;28;20112;-73
2023/12/20 16:08:23;;;;;;;26.23;22.15;;;;;;;;;;10027013;28;20045;-73
2023/12/20 16:13:17;;;;;;;57.60;51.05;;;;;;;;;;10026122;28;20503;-73
2023/12/20 16:18:10;;;;;;;38.83;28.92;;;;;;;;;;10025399;28;20037;-73
2023/12/20 16:23:03;;;;;;;39.22;29.08;;;;;;;;;;10012997;28;21718;-73
2023/12/20 16:27:55;;;;;;;35.45;25.48;;;;;;;;;;10023479;28;20107;-74
2023/12/20 16:32:47;;;;;;;58.88;41.20;;;;;;;;;;10023271;28;20054;-74
2023/12/20 16:37:39;;;;;;;29.80;21.35;;;;;;;;;;10024256;28;20053;-76
2023/12/20 16:42:31;;;;;;;34.25;21.42;;;;;;;;;;10021883;28;20057;-74
2023/12/20 16:47:23;;;;;;;45.28;31.17;;;;;;;;;;9988356;28;20141;-73
2023/12/20 16:52:15;;;;;;;22.92;17.92;;;;;;;;;;9984451;28;20046;-73
2023/12/20 16:57:07;;;;;;;36.67;22.52;;;;;;;;;;9986923;28;20054;-74
2023/12/20 17:02:01;;;;;;;20.95;15.88;;;;;;;;;;9987489;28;20050;-73
2023/12/20 17:06:53;;;;;;;23.63;16.63;;;;;;;;;;9984530;28;20129;-74
2023/12/20 17:11:45;;;;;;;26.58;20.98;;;;;;;;;;9984904;28;20436;-73
2023/12/20 17:16:37;;;;;;;21.73;17.83;;;;;;;;;;9994949;28;20486;-74
2023/12/20 17:21:29;;;;;;;20.55;16.48;;;;;;;;;;9985149;28;20131;-74
2023/12/20 17:26:21;;;;;;;19.45;15.07;;;;;;;;;;9991986;28;20074;-72
2023/12/20 17:31:13;;;;;;;22.15;16.77;;;;;;;;;;9990400;28;20064;-73
2023/12/20 17:36:06;;;;;;;56.67;36.97;;;;;;;;;;9996848;28;20167;-72
2023/12/20 17:40:59;;;;;;;24.77;19.00;;;;;;;;;;9986948;28;20145;-73
2023/12/20 17:45:50;;;;;;;21.77;17.88;;;;;;;;;;9990941;28;20078;-73
2023/12/20 17:50:43;;;;;;;20.58;17.90;;;;;;;;;;9985846;28;20046;-70
2023/12/20 17:55:36;;;;;;;24.50;18.27;;;;;;;;;;10001213;28;20045;-70
2023/12/20 18:00:31;;;;;;;27.50;24.67;;;;;;;;;;10019575;28;20098;-70
2023/12/20 18:05:23;;;;;;;29.95;25.75;;;;;;;;;;10017411;28;20108;-70
2023/12/20 18:10:15;;;;;;;25.90;20.30;;;;;;;;;;10019470;28;20448;-70
2023/12/20 18:15:08;;;;;;;21.75;19.45;;;;;;;;;;10017797;28;20504;-71
2023/12/20 18:20:00;;;;;;;25.15;21.08;;;;;;;;;;10017762;28;20038;-71
2023/12/20 18:24:53;;;;;;;28.38;20.23;;;;;;;;;;10014470;28;20042;-73
2023/12/20 18:29:45;;;;;;;23.30;19.08;;;;;;;;;;10018640;28;20046;-73
2023/12/20 18:34:37;;;;;;;24.23;20.83;;;;;;;;;;10033354;28;20111;-73
2023/12/20 18:39:29;;;;;;;30.02;23.42;;;;;;;;;;10026474;28;20049;-74
2023/12/20 18:44:21;;;;;;;22.05;18.23;;;;;;;;;;10026891;28;20064;-73
2023/12/20 18:49:14;;;;;;;23.98;19.63;;;;;;;;;;10016878;28;20151;-74
2023/12/20 18:54:06;;;;;;;36.72;28.25;;;;;;;;;;10016930;28;20054;-76
2023/12/20 18:58:57;;;;;;;94.45;64.25;;;;;;;;;;10003216;28;20046;-76
2023/12/20 19:03:50;;;;;;;47.95;33.65;;;;;;;;;;10023806;28;20085;-74
2023/12/20 19:08:42;;;;;;;30.65;23.73;;;;;;;;;;10027960;28;20048;-77
2023/12/20 19:13:34;;;;;;;29.60;24.27;;;;;;;;;;10028764;28;20048;-77
2023/12/20 19:18:26;;;;;;;42.25;26.83;;;;;;;;;;10027561;28;20389;-77
2023/12/20 19:23:18;;;;;;;41.45;30.02;;;;;;;;;;10027066;28;20038;-77
2023/12/20 19:28:10;;;;;;;26.90;20.70;;;;;;;;;;10027878;28;20057;-77
2023/12/20 19:33:02;;;;;;;26.27;22.65;;;;;;;;;;10027848;28;20172;-77
2023/12/20 19:37:55;;;;;;;23.80;19.35;;;;;;;;;;10026992;28;20061;-77
2023/12/20 19:42:47;;;;;;;25.25;18.25;;;;;;;;;;10026667;28;20042;-76
2023/12/20 19:47:39;;;;;;;22.33;19.48;;;;;;;;;;10026818;28;20041;-77
2023/12/20 19:52:31;;;;;;;23.90;20.13;;;;;;;;;;10023182;28;20042;-77
2023/12/20 19:57:23;;;;;;;18.95;16.40;;;;;;;;;;9997658;28;20386;-76
2023/12/20 20:02:15;;;;;;;23.30;18.60;;;;;;;;;;10000451;28;20405;-76
2023/12/20 20:07:12;;;;;;;21.23;17.38;;;;;;;;;;9993132;28;20101;-77
2023/12/20 20:12:05;;;;;;;18.67;14.10;;;;;;;;;;9996839;28;20046;-77
2023/12/20 20:16:59;;;;;;;20.83;16.63;;;;;;;;;;9998559;28;20145;-77
2023/12/20 20:21:51;;;;;;;21.10;17.77;;;;;;;;;;10036911;28;20038;-77
2023/12/20 20:26:43;;;;;;;17.85;15.77;;;;;;;;;;10026595;28;20045;-77
2023/12/20 20:31:36;;;;;;;19.52;15.15;;;;;;;;;;10025360;28;20560;-76
2023/12/20 20:36:28;;;;;;;25.08;17.95;;;;;;;;;;10026206;28;20042;-77
2023/12/20 20:41:20;;;;;;;19.13;16.70;;;;;;;;;;10017489;28;20137;-77
2023/12/20 20:46:13;;;;;;;25.02;18.85;;;;;;;;;;10045032;28;20464;-77
2023/12/20 20:51:05;;;;;;;26.73;21.55;;;;;;;;;;10025990;28;20420;-77
2023/12/20 20:55:58;;;;;;;23.15;18.05;;;;;;;;;;10027278;28;20137;-77
2023/12/20 21:00:50;;;;;;;22.05;17.35;;;;;;;;;;10021591;28;20048;-77
2023/12/20 21:05:42;;;;;;;21.88;18.30;;;;;;;;;;10037556;28;20053;-77
2023/12/20 21:10:34;;;;;;;23.60;18.58;;;;;;;;;;10017490;28;20356;-77
2023/12/20 21:15:27;;;;;;;21.70;17.88;;;;;;;;;;10013635;28;20369;-76
2023/12/20 21:20:19;;;;;;;24.50;18.33;;;;;;;;;;10011295;28;20041;-77
2023/12/20 21:25:11;;;;;;;28.55;19.45;;;;;;;;;;10018056;28;20058;-77
2023/12/20 21:30:03;;;;;;;23.38;18.83;;;;;;;;;;10018258;28;20053;-77
2023/12/20 21:34:55;;;;;;;24.67;19.60;;;;;;;;;;10023125;28;20389;-77
2023/12/20 21:39:47;;;;;;;31.70;24.75;;;;;;;;;;10023649;28;20053;-77
2023/12/20 21:44:39;;;;;;;33.90;24.48;;;;;;;;;;10020966;28;20384;-77
2023/12/20 21:49:31;;;;;;;30.73;24.33;;;;;;;;;;10019842;28;20053;-76
2023/12/20 21:54:23;;;;;;;33.15;28.75;;;;;;;;;;10019923;28;20129;-77
2023/12/20 21:59:15;;;;;;;36.17;27.75;;;;;;;;;;10022261;28;20444;-77
2023/12/20 22:04:07;;;;;;;35.45;29.00;;;;;;;;;;10024108;28;20065;-77
2023/12/20 22:09:00;;;;;;;35.40;27.77;;;;;;;;;;10030999;28;20539;-77
2023/12/20 22:13:53;;;;;;;30.95;25.27;;;;;;;;;;10029755;28;20128;-76
2023/12/20 22:18:45;;;;;;;32.38;25.05;;;;;;;;;;10028691;28;20049;-77
2023/12/20 22:23:37;;;;;;;29.92;23.75;;;;;;;;;;10029654;28;20054;-77
2023/12/20 22:28:29;;;;;;;24.23;21.15;;;;;;;;;;10030381;28;20054;-77
2023/12/20 22:33:21;;;;;;;32.17;24.33;;;;;;;;;;10017593;28;20053;-76
2023/12/20 22:38:13;;;;;;;25.00;21.13;;;;;;;;;;10030381;28;20049;-76
2023/12/20 22:43:05;;;;;;;27.20;20.77;;;;;;;;;;10029795;28;20582;-77
2023/12/20 22:47:56;;;;;;;25.95;21.42;;;;;;;;;;10029756;28;20049;-77
2023/12/20 22:52:49;;;;;;;28.58;22.95;;;;;;;;;;10030082;28;20061;-77
2023/12/20 22:57:41;;;;;;;29.40;24.90;;;;;;;;;;10029942;28;20045;-77
2023/12/20 23:02:33;;;;;;;25.77;21.90;;;;;;;;;;10029834;28;20073;-77
2023/12/20 23:07:24;;;;;;;33.80;26.55;;;;;;;;;;10029431;28;20516;-77
2023/12/20 23:12:16;;;;;;;33.70;22.27;;;;;;;;;;10029212;28;20061;-77
2023/12/20 23:17:08;;;;;;;26.05;21.88;;;;;;;;;;10014516;28;20125;-77
2023/12/20 23:22:00;;;;;;;27.05;23.33;;;;;;;;;;10029782;28;20046;-77
2023/12/20 23:26:52;;;;;;;31.58;24.70;;;;;;;;;;10028629;28;20362;-77
2023/12/20 23:31:44;;;;;;;21.27;18.98;;;;;;;;;;10028307;28;20107;-77
2023/12/20 23:36:36;;;;;;;22.67;16.77;;;;;;;;;;10028099;28;20108;-77
2023/12/20 23:41:28;;;;;;;17.27;14.80;;;;;;;;;;10027915;28;20050;-77
2023/12/20 23:46:20;;;;;;;16.40;14.65;;;;;;;;;;10014511;28;20149;-77
2023/12/20 23:51:12;;;;;;;19.90;16.17;;;;;;;;;;10014535;28;20586;-76
2023/12/20 23:56:04;;;;;;;18.10;13.10;;;;;;;;;;10027728;28;20038;-77
